Catlettsburg, Kentucky
Current Conditions -  °F | °C
As of 3:51 PM on Wednesday 17 Dec 2014 (Local Time) from KHTS Reporting Station
Overcast Overcast  
Wind Chill: 29°   Ceiling: 2300
Heat Index: 35°   Visibility: 10mi
Dew Point: 26°   Wind: 7mph
Humidity: 70%   Direction: 270°W
Pressure: 30.18"   Gusts: NA
Location:  38.4°N, 82.6°W
Report Text: KHTS 172051Z 27006KT 10SM OVC023 02/M03 A3018 RMK AO2 SLP225 T00171033 55005
Loading
Personal Weather Stations






























Interactive Weather Map New forecast layout! Learn more

10-Day Weather Forecast

Advertisements
Track Severe Weather on mobile